sensor_id;sensor_type;location;lat;lon;timestamp;P1;durP1;ratioP1;P2;durP2;ratioP2
59922;SDS011;45778;51.142;3.732;2023-01-10T00:00:25;0.00;;;0.00;;
59922;SDS011;45778;51.142;3.732;2023-01-10T00:02:56;0.00;;;0.00;;
59922;SDS011;45778;51.142;3.732;2023-01-10T00:05:22;0.00;;;0.00;;
59922;SDS011;45778;51.142;3.732;2023-01-10T00:07:47;0.00;;;0.00;;
59922;SDS011;45778;51.142;3.732;2023-01-10T00:10:13;0.00;;;0.00;;
59922;SDS011;45778;51.142;3.732;2023-01-10T00:12:39;0.00;;;0.00;;
59922;SDS011;45778;51.142;3.732;2023-01-10T00:15:23;0.10;;;0.10;;
59922;SDS011;45778;51.142;3.732;2023-01-10T00:17:49;0.20;;;0.20;;
59922;SDS011;45778;51.142;3.732;2023-01-10T00:20:15;0.00;;;0.00;;
59922;SDS011;45778;51.142;3.732;2023-01-10T00:22:41;0.00;;;0.00;;
59922;SDS011;45778;51.142;3.732;2023-01-10T00:25:06;0.00;;;0.00;;
59922;SDS011;45778;51.142;3.732;2023-01-10T00:27:32;0.75;;;0.75;;
59922;SDS011;45778;51.142;3.732;2023-01-10T00:29:59;0.00;;;0.00;;
59922;SDS011;45778;51.142;3.732;2023-01-10T00:32:31;0.00;;;0.00;;
59922;SDS011;45778;51.142;3.732;2023-01-10T00:34:56;0.63;;;0.63;;
59922;SDS011;45778;51.142;3.732;2023-01-10T00:37:22;0.00;;;0.00;;
59922;SDS011;45778;51.142;3.732;2023-01-10T00:39:48;0.08;;;0.08;;
59922;SDS011;45778;51.142;3.732;2023-01-10T00:42:13;0.00;;;0.00;;
59922;SDS011;45778;51.142;3.732;2023-01-10T00:44:57;1.65;;;1.45;;
59922;SDS011;45778;51.142;3.732;2023-01-10T00:47:23;0.00;;;0.00;;
59922;SDS011;45778;51.142;3.732;2023-01-10T00:49:49;0.00;;;0.00;;
59922;SDS011;45778;51.142;3.732;2023-01-10T00:52:14;0.00;;;0.00;;
59922;SDS011;45778;51.142;3.732;2023-01-10T00:54:40;0.35;;;0.35;;
59922;SDS011;45778;51.142;3.732;2023-01-10T00:57:06;0.45;;;0.45;;
59922;SDS011;45778;51.142;3.732;2023-01-10T00:59:32;0.40;;;0.40;;
59922;SDS011;45778;51.142;3.732;2023-01-10T01:01:57;0.20;;;0.20;;
59922;SDS011;45778;51.142;3.732;2023-01-10T01:04:23;12.45;;;2.60;;
59922;SDS011;45778;51.142;3.732;2023-01-10T01:06:49;12.70;;;1.80;;
59922;SDS011;45778;51.142;3.732;2023-01-10T01:09:14;12.80;;;1.85;;
59922;SDS011;45778;51.142;3.732;2023-01-10T01:11:40;12.88;;;2.20;;
59922;SDS011;45778;51.142;3.732;2023-01-10T01:14:06;10.75;;;2.58;;
59922;SDS011;45778;51.142;3.732;2023-01-10T01:16:32;15.55;;;2.97;;
59922;SDS011;45778;51.142;3.732;2023-01-10T01:18:58;16.58;;;2.35;;
59922;SDS011;45778;51.142;3.732;2023-01-10T01:21:23;19.58;;;3.22;;
59922;SDS011;45778;51.142;3.732;2023-01-10T01:23:55;21.30;;;3.05;;
59922;SDS011;45778;51.142;3.732;2023-01-10T01:26:24;14.00;;;2.50;;
59922;SDS011;45778;51.142;3.732;2023-01-10T01:28:50;18.65;;;3.10;;
59922;SDS011;45778;51.142;3.732;2023-01-10T01:31:16;15.00;;;2.45;;
59922;SDS011;45778;51.142;3.732;2023-01-10T01:33:42;17.48;;;3.30;;
59922;SDS011;45778;51.142;3.732;2023-01-10T01:36:08;21.63;;;2.35;;
59922;SDS011;45778;51.142;3.732;2023-01-10T01:38:35;22.33;;;4.00;;
59922;SDS011;45778;51.142;3.732;2023-01-10T01:41:04;13.80;;;2.38;;
59922;SDS011;45778;51.142;3.732;2023-01-10T01:44:04;17.52;;;3.28;;
59922;SDS011;45778;51.142;3.732;2023-01-10T01:46:32;21.92;;;2.90;;
59922;SDS011;45778;51.142;3.732;2023-01-10T01:49:01;16.83;;;3.13;;
59922;SDS011;45778;51.142;3.732;2023-01-10T01:51:30;21.27;;;3.30;;
59922;SDS011;45778;51.142;3.732;2023-01-10T01:53:58;20.27;;;3.67;;
59922;SDS011;45778;51.142;3.732;2023-01-10T01:56:45;25.83;;;3.33;;
59922;SDS011;45778;51.142;3.732;2023-01-10T02:01:43;23.20;;;4.63;;
59922;SDS011;45778;51.142;3.732;2023-01-10T02:04:16;18.83;;;4.45;;
59922;SDS011;45778;51.142;3.732;2023-01-10T02:06:47;18.08;;;3.05;;
59922;SDS011;45778;51.142;3.732;2023-01-10T02:12:29;20.33;;;3.70;;
59922;SDS011;45778;51.142;3.732;2023-01-10T02:14:56;14.88;;;2.92;;
59922;SDS011;45778;51.142;3.732;2023-01-10T02:17:23;20.73;;;3.63;;
59922;SDS011;45778;51.142;3.732;2023-01-10T02:19:53;20.08;;;3.15;;
59922;SDS011;45778;51.142;3.732;2023-01-10T02:25:42;16.77;;;3.70;;
59922;SDS011;45778;51.142;3.732;2023-01-10T02:45:33;19.98;;;3.50;;
59922;SDS011;45778;51.142;3.732;2023-01-10T02:48:02;28.20;;;3.63;;
59922;SDS011;45778;51.142;3.732;2023-01-10T02:52:55;22.38;;;4.10;;
59922;SDS011;45778;51.142;3.732;2023-01-10T02:55:25;25.88;;;4.18;;
59922;SDS011;45778;51.142;3.732;2023-01-10T02:58:32;24.58;;;4.10;;
59922;SDS011;45778;51.142;3.732;2023-01-10T03:07:00;18.42;;;3.00;;
59922;SDS011;45778;51.142;3.732;2023-01-10T03:09:48;18.65;;;3.83;;
59922;SDS011;45778;51.142;3.732;2023-01-10T03:12:56;28.55;;;4.28;;
59922;SDS011;45778;51.142;3.732;2023-01-10T03:15:30;28.33;;;4.20;;
59922;SDS011;45778;51.142;3.732;2023-01-10T03:18:00;19.05;;;2.53;;
59922;SDS011;45778;51.142;3.732;2023-01-10T03:20:31;32.15;;;4.00;;
59922;SDS011;45778;51.142;3.732;2023-01-10T03:23:00;28.38;;;4.63;;
59922;SDS011;45778;51.142;3.732;2023-01-10T03:25:29;25.65;;;3.40;;
59922;SDS011;45778;51.142;3.732;2023-01-10T03:33:15;22.45;;;3.20;;
59922;SDS011;45778;51.142;3.732;2023-01-10T03:52:37;18.23;;;3.60;;
59922;SDS011;45778;51.142;3.732;2023-01-10T03:55:04;14.00;;;3.13;;
59922;SDS011;45778;51.142;3.732;2023-01-10T03:57:32;24.58;;;3.15;;
59922;SDS011;45778;51.142;3.732;2023-01-10T03:59:57;29.58;;;3.45;;
59922;SDS011;45778;51.142;3.732;2023-01-10T04:02:30;25.42;;;4.35;;
59922;SDS011;45778;51.142;3.732;2023-01-10T04:04:56;22.55;;;3.72;;
59922;SDS011;45778;51.142;3.732;2023-01-10T04:07:23;23.73;;;4.22;;
59922;SDS011;45778;51.142;3.732;2023-01-10T04:09:49;34.40;;;4.97;;
59922;SDS011;45778;51.142;3.732;2023-01-10T04:12:15;26.70;;;4.72;;
59922;SDS011;45778;51.142;3.732;2023-01-10T04:14:41;36.70;;;4.80;;
59922;SDS011;45778;51.142;3.732;2023-01-10T04:17:09;24.27;;;6.53;;
59922;SDS011;45778;51.142;3.732;2023-01-10T04:19:35;22.83;;;4.32;;
59922;SDS011;45778;51.142;3.732;2023-01-10T04:22:01;25.60;;;4.20;;
59922;SDS011;45778;51.142;3.732;2023-01-10T04:24:27;25.75;;;4.70;;
59922;SDS011;45778;51.142;3.732;2023-01-10T04:26:52;27.00;;;4.63;;
59922;SDS011;45778;51.142;3.732;2023-01-10T04:29:18;24.17;;;4.05;;
59922;SDS011;45778;51.142;3.732;2023-01-10T04:31:44;24.60;;;4.68;;
59922;SDS011;45778;51.142;3.732;2023-01-10T04:34:09;28.40;;;5.03;;
59922;SDS011;45778;51.142;3.732;2023-01-10T04:36:35;31.20;;;5.72;;
59922;SDS011;45778;51.142;3.732;2023-01-10T04:39:02;33.17;;;4.60;;
59922;SDS011;45778;51.142;3.732;2023-01-10T04:41:28;28.50;;;5.43;;
59922;SDS011;45778;51.142;3.732;2023-01-10T04:43:54;25.52;;;5.68;;
59922;SDS011;45778;51.142;3.732;2023-01-10T04:46:20;26.52;;;4.30;;
59922;SDS011;45778;51.142;3.732;2023-01-10T04:48:45;25.77;;;4.47;;
59922;SDS011;45778;51.142;3.732;2023-01-10T04:51:11;21.95;;;4.47;;
59922;SDS011;45778;51.142;3.732;2023-01-10T04:53:37;22.60;;;4.60;;
59922;SDS011;45778;51.142;3.732;2023-01-10T04:56:03;20.92;;;4.22;;
59922;SDS011;45778;51.142;3.732;2023-01-10T04:58:31;22.48;;;4.22;;
59922;SDS011;45778;51.142;3.732;2023-01-10T05:00:58;27.65;;;4.40;;
59922;SDS011;45778;51.142;3.732;2023-01-10T05:03:24;23.65;;;3.85;;
59922;SDS011;45778;51.142;3.732;2023-01-10T05:05:49;29.42;;;4.15;;
59922;SDS011;45778;51.142;3.732;2023-01-10T05:08:15;22.23;;;4.05;;
59922;SDS011;45778;51.142;3.732;2023-01-10T05:10:40;19.95;;;3.40;;
59922;SDS011;45778;51.142;3.732;2023-01-10T05:13:06;20.38;;;4.15;;
59922;SDS011;45778;51.142;3.732;2023-01-10T05:15:32;18.90;;;2.92;;
59922;SDS011;45778;51.142;3.732;2023-01-10T05:17:58;14.13;;;3.13;;
59922;SDS011;45778;51.142;3.732;2023-01-10T05:20:25;21.33;;;3.67;;
59922;SDS011;45778;51.142;3.732;2023-01-10T05:22:51;27.13;;;3.97;;
59922;SDS011;45778;51.142;3.732;2023-01-10T05:25:17;21.75;;;3.63;;
59922;SDS011;45778;51.142;3.732;2023-01-10T05:27:42;22.52;;;3.92;;
59922;SDS011;45778;51.142;3.732;2023-01-10T05:30:09;32.42;;;5.05;;
59922;SDS011;45778;51.142;3.732;2023-01-10T05:32:36;23.45;;;3.63;;
59922;SDS011;45778;51.142;3.732;2023-01-10T05:35:02;24.00;;;3.35;;
59922;SDS011;45778;51.142;3.732;2023-01-10T05:37:28;25.42;;;4.15;;
59922;SDS011;45778;51.142;3.732;2023-01-10T05:39:54;24.52;;;3.53;;
59922;SDS011;45778;51.142;3.732;2023-01-10T05:42:19;19.75;;;3.97;;
59922;SDS011;45778;51.142;3.732;2023-01-10T05:44:45;18.95;;;3.88;;
59922;SDS011;45778;51.142;3.732;2023-01-10T05:47:11;28.05;;;4.18;;
59922;SDS011;45778;51.142;3.732;2023-01-10T05:49:36;20.20;;;3.97;;
59922;SDS011;45778;51.142;3.732;2023-01-10T05:52:02;22.98;;;4.10;;
59922;SDS011;45778;51.142;3.732;2023-01-10T05:54:28;26.17;;;4.07;;
59922;SDS011;45778;51.142;3.732;2023-01-10T05:56:54;21.73;;;3.17;;
59922;SDS011;45778;51.142;3.732;2023-01-10T05:59:21;22.90;;;3.28;;
59922;SDS011;45778;51.142;3.732;2023-01-10T06:01:46;26.13;;;3.83;;
59922;SDS011;45778;51.142;3.732;2023-01-10T06:04:12;16.58;;;2.88;;
59922;SDS011;45778;51.142;3.732;2023-01-10T06:06:38;21.00;;;2.88;;
59922;SDS011;45778;51.142;3.732;2023-01-10T06:09:04;17.67;;;3.33;;
59922;SDS011;45778;51.142;3.732;2023-01-10T06:11:30;24.17;;;4.68;;
59922;SDS011;45778;51.142;3.732;2023-01-10T06:14:00;20.17;;;4.07;;
59922;SDS011;45778;51.142;3.732;2023-01-10T06:16:26;23.73;;;4.45;;
59922;SDS011;45778;51.142;3.732;2023-01-10T06:18:52;21.00;;;3.72;;
59922;SDS011;45778;51.142;3.732;2023-01-10T06:21:18;21.70;;;4.25;;
59922;SDS011;45778;51.142;3.732;2023-01-10T06:23:44;15.10;;;3.55;;
59922;SDS011;45778;51.142;3.732;2023-01-10T06:26:10;22.05;;;4.40;;
59922;SDS011;45778;51.142;3.732;2023-01-10T06:28:35;26.80;;;3.97;;
59922;SDS011;45778;51.142;3.732;2023-01-10T06:31:01;21.65;;;3.70;;
59922;SDS011;45778;51.142;3.732;2023-01-10T06:33:27;23.75;;;4.40;;
59922;SDS011;45778;51.142;3.732;2023-01-10T06:35:53;29.80;;;3.60;;
59922;SDS011;45778;51.142;3.732;2023-01-10T06:38:18;22.98;;;3.40;;
59922;SDS011;45778;51.142;3.732;2023-01-10T06:40:44;19.13;;;3.25;;
59922;SDS011;45778;51.142;3.732;2023-01-10T06:43:10;15.95;;;3.58;;
59922;SDS011;45778;51.142;3.732;2023-01-10T06:45:36;17.98;;;3.10;;
59922;SDS011;45778;51.142;3.732;2023-01-10T06:48:01;15.52;;;3.30;;
59922;SDS011;45778;51.142;3.732;2023-01-10T06:50:27;22.52;;;3.45;;
59922;SDS011;45778;51.142;3.732;2023-01-10T06:53:00;38.25;;;4.95;;
59922;SDS011;45778;51.142;3.732;2023-01-10T06:55:27;18.85;;;3.88;;
59922;SDS011;45778;51.142;3.732;2023-01-10T06:57:58;24.20;;;4.18;;
59922;SDS011;45778;51.142;3.732;2023-01-10T07:00:25;20.95;;;4.05;;
59922;SDS011;45778;51.142;3.732;2023-01-10T07:02:52;30.63;;;4.63;;
59922;SDS011;45778;51.142;3.732;2023-01-10T07:05:20;26.00;;;4.10;;
59922;SDS011;45778;51.142;3.732;2023-01-10T07:07:46;17.20;;;3.72;;
59922;SDS011;45778;51.142;3.732;2023-01-10T07:10:11;28.65;;;3.90;;
59922;SDS011;45778;51.142;3.732;2023-01-10T07:12:37;20.00;;;5.03;;
59922;SDS011;45778;51.142;3.732;2023-01-10T07:15:03;30.45;;;4.95;;
59922;SDS011;45778;51.142;3.732;2023-01-10T07:17:29;21.08;;;3.65;;
59922;SDS011;45778;51.142;3.732;2023-01-10T07:19:55;20.90;;;3.80;;
59922;SDS011;45778;51.142;3.732;2023-01-10T07:22:21;22.20;;;4.22;;
59922;SDS011;45778;51.142;3.732;2023-01-10T07:24:46;19.58;;;4.10;;
59922;SDS011;45778;51.142;3.732;2023-01-10T07:27:12;19.73;;;3.13;;
59922;SDS011;45778;51.142;3.732;2023-01-10T07:29:38;20.67;;;3.83;;
59922;SDS011;45778;51.142;3.732;2023-01-10T07:32:04;23.77;;;3.53;;
59922;SDS011;45778;51.142;3.732;2023-01-10T07:34:30;25.00;;;2.92;;
59922;SDS011;45778;51.142;3.732;2023-01-10T07:36:55;20.27;;;3.60;;
59922;SDS011;45778;51.142;3.732;2023-01-10T07:39:21;24.63;;;3.50;;
59922;SDS011;45778;51.142;3.732;2023-01-10T07:41:47;25.05;;;3.53;;
59922;SDS011;45778;51.142;3.732;2023-01-10T07:44:14;25.08;;;3.88;;
59922;SDS011;45778;51.142;3.732;2023-01-10T07:46:40;20.77;;;3.35;;
59922;SDS011;45778;51.142;3.732;2023-01-10T07:49:07;15.90;;;3.58;;
59922;SDS011;45778;51.142;3.732;2023-01-10T07:51:32;22.48;;;4.00;;
59922;SDS011;45778;51.142;3.732;2023-01-10T07:53:58;23.48;;;3.53;;
59922;SDS011;45778;51.142;3.732;2023-01-10T07:56:24;15.80;;;3.70;;
59922;SDS011;45778;51.142;3.732;2023-01-10T07:58:49;26.27;;;4.10;;
59922;SDS011;45778;51.142;3.732;2023-01-10T08:01:15;24.85;;;3.85;;
59922;SDS011;45778;51.142;3.732;2023-01-10T08:03:41;26.67;;;4.40;;
59922;SDS011;45778;51.142;3.732;2023-01-10T08:06:07;23.45;;;4.20;;
59922;SDS011;45778;51.142;3.732;2023-01-10T08:08:35;29.60;;;4.50;;
59922;SDS011;45778;51.142;3.732;2023-01-10T08:11:01;15.73;;;3.83;;
59922;SDS011;45778;51.142;3.732;2023-01-10T08:13:28;21.67;;;3.63;;
59922;SDS011;45778;51.142;3.732;2023-01-10T08:15:54;19.42;;;3.75;;
59922;SDS011;45778;51.142;3.732;2023-01-10T08:18:21;23.02;;;3.55;;
59922;SDS011;45778;51.142;3.732;2023-01-10T08:20:47;26.00;;;4.18;;
59922;SDS011;45778;51.142;3.732;2023-01-10T08:23:14;20.17;;;4.00;;
59922;SDS011;45778;51.142;3.732;2023-01-10T08:25:40;18.60;;;3.80;;
59922;SDS011;45778;51.142;3.732;2023-01-10T08:28:06;19.88;;;3.50;;
59922;SDS011;45778;51.142;3.732;2023-01-10T08:30:31;22.17;;;3.53;;
59922;SDS011;45778;51.142;3.732;2023-01-10T08:32:57;18.85;;;2.95;;
59922;SDS011;45778;51.142;3.732;2023-01-10T08:35:25;20.42;;;2.90;;
59922;SDS011;45778;51.142;3.732;2023-01-10T08:37:51;22.98;;;3.72;;
59922;SDS011;45778;51.142;3.732;2023-01-10T08:40:17;23.13;;;3.13;;
59922;SDS011;45778;51.142;3.732;2023-01-10T08:42:42;20.25;;;5.03;;
59922;SDS011;45778;51.142;3.732;2023-01-10T08:45:08;31.60;;;3.58;;
59922;SDS011;45778;51.142;3.732;2023-01-10T08:47:34;22.48;;;4.07;;
59922;SDS011;45778;51.142;3.732;2023-01-10T08:50:00;19.00;;;4.50;;
59922;SDS011;45778;51.142;3.732;2023-01-10T08:52:26;21.83;;;4.82;;
59922;SDS011;45778;51.142;3.732;2023-01-10T08:54:52;15.75;;;3.22;;
59922;SDS011;45778;51.142;3.732;2023-01-10T08:57:18;19.27;;;3.95;;
59922;SDS011;45778;51.142;3.732;2023-01-10T08:59:43;19.60;;;2.90;;
59922;SDS011;45778;51.142;3.732;2023-01-10T09:02:12;24.77;;;3.28;;
59922;SDS011;45778;51.142;3.732;2023-01-10T09:04:38;18.98;;;3.67;;
59922;SDS011;45778;51.142;3.732;2023-01-10T09:07:04;18.67;;;3.58;;
59922;SDS011;45778;51.142;3.732;2023-01-10T09:09:30;16.50;;;3.30;;
59922;SDS011;45778;51.142;3.732;2023-01-10T09:11:56;18.17;;;3.95;;
59922;SDS011;45778;51.142;3.732;2023-01-10T09:14:21;25.48;;;4.05;;
59922;SDS011;45778;51.142;3.732;2023-01-10T09:16:48;17.33;;;3.40;;
59922;SDS011;45778;51.142;3.732;2023-01-10T09:19:15;28.00;;;3.90;;
59922;SDS011;45778;51.142;3.732;2023-01-10T09:21:41;19.23;;;3.47;;
59922;SDS011;45778;51.142;3.732;2023-01-10T09:24:07;26.35;;;4.82;;
59922;SDS011;45778;51.142;3.732;2023-01-10T09:26:33;13.07;;;3.25;;
59922;SDS011;45778;51.142;3.732;2023-01-10T09:28:59;42.67;;;14.93;;
59922;SDS011;45778;51.142;3.732;2023-01-10T09:31:24;36.47;;;16.67;;
59922;SDS011;45778;51.142;3.732;2023-01-10T09:33:50;46.38;;;29.15;;
59922;SDS011;45778;51.142;3.732;2023-01-10T09:36:16;30.55;;;8.75;;
59922;SDS011;45778;51.142;3.732;2023-01-10T09:38:42;20.58;;;4.80;;
59922;SDS011;45778;51.142;3.732;2023-01-10T09:47:12;21.00;;;5.43;;
59922;SDS011;45778;51.142;3.732;2023-01-10T09:51:47;17.50;;;3.65;;
59922;SDS011;45778;51.142;3.732;2023-01-10T09:54:19;25.02;;;4.55;;
59922;SDS011;45778;51.142;3.732;2023-01-10T09:56:55;79.32;;;35.13;;
59922;SDS011;45778;51.142;3.732;2023-01-10T09:59:29;20.15;;;4.85;;
59922;SDS011;45778;51.142;3.732;2023-01-10T10:02:03;21.05;;;5.90;;
59922;SDS011;45778;51.142;3.732;2023-01-10T10:04:38;17.33;;;4.18;;
59922;SDS011;45778;51.142;3.732;2023-01-10T10:07:07;19.75;;;5.35;;
59922;SDS011;45778;51.142;3.732;2023-01-10T10:09:38;22.27;;;5.35;;
59922;SDS011;45778;51.142;3.732;2023-01-10T10:17:34;21.17;;;5.87;;
59922;SDS011;45778;51.142;3.732;2023-01-10T10:20:30;16.50;;;4.40;;
59922;SDS011;45778;51.142;3.732;2023-01-10T10:23:34;22.05;;;4.63;;
59922;SDS011;45778;51.142;3.732;2023-01-10T10:28:50;23.23;;;4.30;;
59922;SDS011;45778;51.142;3.732;2023-01-10T10:40:19;18.58;;;3.53;;
59922;SDS011;45778;51.142;3.732;2023-01-10T10:42:48;22.50;;;4.32;;
59922;SDS011;45778;51.142;3.732;2023-01-10T10:45:21;18.73;;;3.60;;
59922;SDS011;45778;51.142;3.732;2023-01-10T10:47:58;22.45;;;3.75;;
59922;SDS011;45778;51.142;3.732;2023-01-10T10:50:34;24.10;;;3.45;;
59922;SDS011;45778;51.142;3.732;2023-01-10T10:53:03;26.50;;;4.63;;
59922;SDS011;45778;51.142;3.732;2023-01-10T10:55:33;25.55;;;3.45;;
59922;SDS011;45778;51.142;3.732;2023-01-10T10:58:03;14.70;;;3.70;;
59922;SDS011;45778;51.142;3.732;2023-01-10T11:00:31;105.70;;;30.75;;
59922;SDS011;45778;51.142;3.732;2023-01-10T11:05:44;37.95;;;9.45;;
59922;SDS011;45778;51.142;3.732;2023-01-10T11:08:12;30.67;;;9.50;;
59922;SDS011;45778;51.142;3.732;2023-01-10T11:10:53;15.85;;;4.40;;
59922;SDS011;45778;51.142;3.732;2023-01-10T11:13:37;9.45;;;3.03;;
59922;SDS011;45778;51.142;3.732;2023-01-10T11:16:21;16.42;;;4.50;;
59922;SDS011;45778;51.142;3.732;2023-01-10T11:19:18;17.08;;;5.03;;
59922;SDS011;45778;51.142;3.732;2023-01-10T11:21:48;30.30;;;6.50;;
59922;SDS011;45778;51.142;3.732;2023-01-10T11:24:19;22.65;;;4.53;;
59922;SDS011;45778;51.142;3.732;2023-01-10T11:26:45;17.77;;;2.90;;
59922;SDS011;45778;51.142;3.732;2023-01-10T11:29:16;15.20;;;4.18;;
59922;SDS011;45778;51.142;3.732;2023-01-10T11:31:57;15.77;;;4.22;;
59922;SDS011;45778;51.142;3.732;2023-01-10T11:34:32;15.55;;;3.92;;
59922;SDS011;45778;51.142;3.732;2023-01-10T11:37:01;22.50;;;4.28;;
59922;SDS011;45778;51.142;3.732;2023-01-10T11:39:30;21.00;;;5.70;;
59922;SDS011;45778;51.142;3.732;2023-01-10T11:41:56;25.63;;;4.05;;
59922;SDS011;45778;51.142;3.732;2023-01-10T11:44:49;21.08;;;4.55;;
59922;SDS011;45778;51.142;3.732;2023-01-10T11:47:15;22.00;;;4.47;;
59922;SDS011;45778;51.142;3.732;2023-01-10T11:49:45;17.63;;;3.60;;
59922;SDS011;45778;51.142;3.732;2023-01-10T11:52:22;21.05;;;3.95;;
59922;SDS011;45778;51.142;3.732;2023-01-10T11:54:53;17.33;;;3.83;;
59922;SDS011;45778;51.142;3.732;2023-01-10T11:57:28;15.88;;;4.03;;
59922;SDS011;45778;51.142;3.732;2023-01-10T11:59:56;21.25;;;3.65;;
59922;SDS011;45778;51.142;3.732;2023-01-10T12:05:10;20.05;;;3.72;;
59922;SDS011;45778;51.142;3.732;2023-01-10T12:07:59;15.05;;;3.88;;
59922;SDS011;45778;51.142;3.732;2023-01-10T12:10:32;18.73;;;3.92;;
59922;SDS011;45778;51.142;3.732;2023-01-10T12:12:59;17.00;;;4.00;;
59922;SDS011;45778;51.142;3.732;2023-01-10T12:15:39;19.67;;;3.67;;
59922;SDS011;45778;51.142;3.732;2023-01-10T12:18:05;22.38;;;4.43;;
59922;SDS011;45778;51.142;3.732;2023-01-10T12:20:34;22.90;;;7.00;;
59922;SDS011;45778;51.142;3.732;2023-01-10T12:23:10;21.92;;;4.13;;
59922;SDS011;45778;51.142;3.732;2023-01-10T12:25:41;13.00;;;3.77;;
59922;SDS011;45778;51.142;3.732;2023-01-10T12:28:13;20.63;;;4.22;;
59922;SDS011;45778;51.142;3.732;2023-01-10T12:30:48;19.50;;;3.80;;
59922;SDS011;45778;51.142;3.732;2023-01-10T12:33:21;19.23;;;4.80;;
59922;SDS011;45778;51.142;3.732;2023-01-10T12:35:52;24.05;;;5.35;;
59922;SDS011;45778;51.142;3.732;2023-01-10T12:38:32;20.63;;;4.90;;
59922;SDS011;45778;51.142;3.732;2023-01-10T12:44:41;16.33;;;4.05;;
59922;SDS011;45778;51.142;3.732;2023-01-10T12:50:20;12.07;;;3.83;;
59922;SDS011;45778;51.142;3.732;2023-01-10T12:52:53;12.50;;;2.90;;
59922;SDS011;45778;51.142;3.732;2023-01-10T12:55:35;19.23;;;4.63;;
59922;SDS011;45778;51.142;3.732;2023-01-10T12:58:17;12.07;;;3.05;;
59922;SDS011;45778;51.142;3.732;2023-01-10T13:00:59;13.15;;;3.38;;
59922;SDS011;45778;51.142;3.732;2023-01-10T13:03:30;10.77;;;2.88;;
59922;SDS011;45778;51.142;3.732;2023-01-10T13:05:57;13.98;;;3.60;;
59922;SDS011;45778;51.142;3.732;2023-01-10T13:08:27;11.05;;;3.53;;
59922;SDS011;45778;51.142;3.732;2023-01-10T13:10:56;11.70;;;4.10;;
59922;SDS011;45778;51.142;3.732;2023-01-10T13:13:33;18.95;;;3.22;;
59922;SDS011;45778;51.142;3.732;2023-01-10T13:19:04;23.13;;;3.47;;
59922;SDS011;45778;51.142;3.732;2023-01-10T13:22:11;14.27;;;2.60;;
59922;SDS011;45778;51.142;3.732;2023-01-10T13:24:57;12.52;;;2.63;;
59922;SDS011;45778;51.142;3.732;2023-01-10T13:27:26;7.90;;;2.28;;
59922;SDS011;45778;51.142;3.732;2023-01-10T13:29:55;12.32;;;2.67;;
59922;SDS011;45778;51.142;3.732;2023-01-10T13:32:38;10.30;;;2.83;;
59922;SDS011;45778;51.142;3.732;2023-01-10T13:35:17;10.82;;;3.15;;
59922;SDS011;45778;51.142;3.732;2023-01-10T13:37:44;13.23;;;2.88;;
59922;SDS011;45778;51.142;3.732;2023-01-10T13:40:20;9.20;;;2.45;;
59922;SDS011;45778;51.142;3.732;2023-01-10T13:46:57;11.57;;;2.88;;
59922;SDS011;45778;51.142;3.732;2023-01-10T13:49:20;6.07;;;2.28;;
59922;SDS011;45778;51.142;3.732;2023-01-10T13:54:58;7.25;;;2.17;;
59922;SDS011;45778;51.142;3.732;2023-01-10T14:00:20;10.68;;;2.33;;
59922;SDS011;45778;51.142;3.732;2023-01-10T14:03:06;21.90;;;9.98;;
59922;SDS011;45778;51.142;3.732;2023-01-10T14:05:32;5.22;;;2.28;;
59922;SDS011;45778;51.142;3.732;2023-01-10T14:07:58;16.35;;;4.95;;
59922;SDS011;45778;51.142;3.732;2023-01-10T14:10:29;14.48;;;4.75;;
59922;SDS011;45778;51.142;3.732;2023-01-10T14:12:58;9.48;;;2.63;;
59922;SDS011;45778;51.142;3.732;2023-01-10T14:15:43;11.00;;;3.85;;
59922;SDS011;45778;51.142;3.732;2023-01-10T14:20:54;20.10;;;8.65;;
59922;SDS011;45778;51.142;3.732;2023-01-10T14:23:27;5.82;;;2.30;;
59922;SDS011;45778;51.142;3.732;2023-01-10T14:26:05;6.80;;;3.10;;
59922;SDS011;45778;51.142;3.732;2023-01-10T14:28:33;11.40;;;3.20;;
59922;SDS011;45778;51.142;3.732;2023-01-10T14:31:07;8.32;;;2.53;;
59922;SDS011;45778;51.142;3.732;2023-01-10T14:33:40;5.93;;;2.30;;
59922;SDS011;45778;51.142;3.732;2023-01-10T14:36:08;4.57;;;1.85;;
59922;SDS011;45778;51.142;3.732;2023-01-10T14:38:39;2.70;;;1.48;;
59922;SDS011;45778;51.142;3.732;2023-01-10T14:41:17;3.15;;;0.98;;
59922;SDS011;45778;51.142;3.732;2023-01-10T14:43:53;7.10;;;2.03;;
59922;SDS011;45778;51.142;3.732;2023-01-10T14:46:58;0.00;;;0.00;;
59922;SDS011;45778;51.142;3.732;2023-01-10T14:49:26;0.00;;;0.00;;
59922;SDS011;45778;51.142;3.732;2023-01-10T14:51:54;0.00;;;0.00;;
59922;SDS011;45778;51.142;3.732;2023-01-10T14:54:35;0.00;;;0.00;;
59922;SDS011;45778;51.142;3.732;2023-01-10T14:57:01;0.00;;;0.00;;
59922;SDS011;45778;51.142;3.732;2023-01-10T14:59:30;0.00;;;0.00;;
59922;SDS011;45778;51.142;3.732;2023-01-10T15:02:02;0.00;;;0.00;;
59922;SDS011;45778;51.142;3.732;2023-01-10T15:04:38;0.45;;;0.45;;
59922;SDS011;45778;51.142;3.732;2023-01-10T15:07:34;0.00;;;0.00;;
59922;SDS011;45778;51.142;3.732;2023-01-10T15:10:02;0.00;;;0.00;;
59922;SDS011;45778;51.142;3.732;2023-01-10T15:12:44;0.22;;;0.22;;
59922;SDS011;45778;51.142;3.732;2023-01-10T15:15:16;0.00;;;0.00;;
59922;SDS011;45778;51.142;3.732;2023-01-10T15:17:46;0.00;;;0.00;;
59922;SDS011;45778;51.142;3.732;2023-01-10T15:20:14;0.00;;;0.00;;
59922;SDS011;45778;51.142;3.732;2023-01-10T15:22:42;0.00;;;0.00;;
59922;SDS011;45778;51.142;3.732;2023-01-10T15:27:47;0.00;;;0.00;;
59922;SDS011;45778;51.142;3.732;2023-01-10T15:30:21;0.00;;;0.00;;
59922;SDS011;45778;51.142;3.732;2023-01-10T15:32:49;25.13;;;3.03;;
59922;SDS011;45778;51.142;3.732;2023-01-10T15:35:18;0.25;;;0.25;;
59922;SDS011;45778;51.142;3.732;2023-01-10T15:37:51;0.00;;;0.00;;
59922;SDS011;45778;51.142;3.732;2023-01-10T15:40:20;0.00;;;0.00;;
59922;SDS011;45778;51.142;3.732;2023-01-10T15:42:48;1.02;;;0.98;;
59922;SDS011;45778;51.142;3.732;2023-01-10T15:45:21;0.00;;;0.00;;
59922;SDS011;45778;51.142;3.732;2023-01-10T15:47:55;0.00;;;0.00;;
59922;SDS011;45778;51.142;3.732;2023-01-10T15:50:37;0.00;;;0.00;;
59922;SDS011;45778;51.142;3.732;2023-01-10T15:53:17;0.40;;;0.40;;
59922;SDS011;45778;51.142;3.732;2023-01-10T15:55:47;0.20;;;0.20;;
59922;SDS011;45778;51.142;3.732;2023-01-10T15:58:33;0.00;;;0.00;;
59922;SDS011;45778;51.142;3.732;2023-01-10T16:01:01;0.00;;;0.00;;
59922;SDS011;45778;51.142;3.732;2023-01-10T16:05:58;0.00;;;0.00;;
59922;SDS011;45778;51.142;3.732;2023-01-10T16:08:27;0.00;;;0.00;;
59922;SDS011;45778;51.142;3.732;2023-01-10T16:10:57;0.00;;;0.00;;
59922;SDS011;45778;51.142;3.732;2023-01-10T16:13:25;1.20;;;0.25;;
59922;SDS011;45778;51.142;3.732;2023-01-10T16:15:51;0.22;;;0.22;;
59922;SDS011;45778;51.142;3.732;2023-01-10T16:18:18;0.00;;;0.00;;
59922;SDS011;45778;51.142;3.732;2023-01-10T16:20:44;1.17;;;1.17;;
59922;SDS011;45778;51.142;3.732;2023-01-10T16:23:13;0.68;;;0.47;;
59922;SDS011;45778;51.142;3.732;2023-01-10T16:25:45;0.00;;;0.00;;
59922;SDS011;45778;51.142;3.732;2023-01-10T16:28:14;0.38;;;0.38;;
59922;SDS011;45778;51.142;3.732;2023-01-10T16:30:41;0.32;;;0.17;;
59922;SDS011;45778;51.142;3.732;2023-01-10T16:33:17;0.10;;;0.10;;
59922;SDS011;45778;51.142;3.732;2023-01-10T16:35:47;0.65;;;0.65;;
59922;SDS011;45778;51.142;3.732;2023-01-10T16:38:15;0.00;;;0.00;;
59922;SDS011;45778;51.142;3.732;2023-01-10T16:40:49;0.00;;;0.00;;
59922;SDS011;45778;51.142;3.732;2023-01-10T16:43:17;1.17;;;1.17;;
59922;SDS011;45778;51.142;3.732;2023-01-10T16:45:47;0.40;;;0.40;;
59922;SDS011;45778;51.142;3.732;2023-01-10T16:48:14;0.55;;;0.55;;